Flight Track Log - Related Links

Times and Time Zones

All times are in EDT time to prevent confusion due to time zone crossing. See the AWE1571 flight status page for this flight to view local times or setup timezone preferences in your user account.

Time Position Orientation Groundspeed Altitude Reporting Facility
EDT Latitude Longitude Course Direction KTS MPH feet Rate Location/Type
Tue 08:47:00 AM 39.8876 -76.7230 147° Southeast  Level FlightAware Approximate
Tue 08:47:17 AM 40.0544 -76.7372 227° Southwest 270 311 7,100  Level New York Center
Tue 08:48:00 AM 39.8027 -76.6523 147° Southeast  Level FlightAware Approximate
Tue 08:48:18 AM 39.9689 -76.7381 180° South 278 320 9,800  Level New York Center
Tue 08:49:00 AM 39.7274 -76.6339 229° Southwest  Level FlightAware Approximate
Tue 08:49:19 AM 39.8986 -76.7267 173° South 285 328 11,400  Level New York Center
Tue 08:50:00 AM 39.6575 -76.7183 237° Southwest  Level FlightAware Approximate
Tue 08:50:17 AM 39.8103 -76.6544 148° Southeast 315 362 14,500  Level New York Center
Tue 08:51:00 AM 39.5903 -76.8136 227° Southwest  Level FlightAware Approximate
Tue 08:51:18 AM 39.7286 -76.6636 185° South 320 368 16,600  Level New York Center
Tue 08:52:00 AM 39.5218 -76.9095 227° Southwest  Level FlightAware Approximate
Tue 08:52:18 AM 39.6922 -76.8036 251° West 299 344 17,100  Level New York Center
Tue 08:53:19 AM 39.6858 -76.9300 266° West 340 391 17,100 504 Level New York Center
Tue 08:54:17 AM 39.6553 -77.0756 255° West 386 444 18,100 1,172 Climbing New York Center
Tue 08:54:46 AM 39.6267 -77.1353 238° Southwest 386 444 18,800 2,157 Climbing Washington Center
Tue 08:55:46 AM 39.5425 -77.1928 208° Southwest 363 418 21,300 2,308 Climbing Washington Center
Tue 08:56:43 AM 39.4439 -77.2550 206° Southwest 375 432 23,300 1,932 Climbing Washington Center
Tue 08:57:44 AM 39.3408 -77.3197 206° Southwest 397 457 25,100 1,672 Climbing Washington Center
Tue 08:58:45 AM 39.2378 -77.3869 207° Southwest 410 472 26,700 1,623 Climbing Washington Center
Tue 08:59:46 AM 39.1303 -77.4539 206° Southwest 423 487 28,400 2,017 Climbing Washington Center
Tue 09:00:44 AM 39.0175 -77.4750 188° South 415 478 30,700 2,319 Climbing Washington Center
Tue 09:01:45 AM 38.9158 -77.4353 163° South 399 459 33,000 2,033 Climbing Washington Center
Tue 09:02:45 AM 38.8250 -77.3769 153° Southeast 372 428 34,800 1,736 Climbing Washington Center
Tue 09:03:46 AM 38.7250 -77.3878 185° South 372 428 36,500 1,041 Climbing Washington Center
Tue 09:04:46 AM 38.6381 -77.4761 218° Southwest 361 415 36,900 508 Climbing Washington Center
Tue 09:05:44 AM 38.5492 -77.5614 217° Southwest 379 436 37,500 559 Climbing Washington Center
Tue 09:06:44 AM 38.4600 -77.6467 217° Southwest 404 465 38,000 248 Climbing Washington Center
Tue 09:07:45 AM 38.3689 -77.7289 215° Southwest 409 471 38,000  Level Washington Center
Tue 09:08:46 AM 38.2778 -77.8136 216° Southwest 414 476 38,000  Level Washington Center
Tue 09:09:44 AM 38.1867 -77.8981 216° Southwest 414 476 38,000  Level Washington Center
Tue 09:10:45 AM 38.0953 -77.9822 216° Southwest 414 476 38,000  Level Washington Center
Tue 09:11:45 AM 37.9997 -78.0689 216° Southwest 409 471 38,000  Level Washington Center
Tue 09:12:46 AM 37.9042 -78.1500 214° Southwest 409 471 38,000  Level Washington Center
Tue 09:13:46 AM 37.8272 -78.2261 218° Southwest 409 471 38,000  Level Washington Center
Tue 09:14:44 AM 37.7231 -78.3197 215° Southwest 415 478 38,000  Level Washington Center
Tue 09:15:45 AM 37.6294 -78.4028 215° Southwest 415 478 38,000 49 Level Washington Center
Tue 09:16:46 AM 37.5333 -78.4908 216° Southwest 420 483 38,100  Climbing Washington Center
Tue 09:17:44 AM 37.4375 -78.5761 215° Southwest 420 483 38,000 -51 Descending Washington Center
Tue 09:18:44 AM 37.3414 -78.6586 214° Southwest 426 490 38,000  Level Washington Center
Tue 09:19:45 AM 37.2619 -78.7442 221° Southwest 426 490 38,000  Level Washington Center
Tue 09:20:46 AM 37.1800 -78.8531 227° Southwest 419 482 38,000  Level Washington Center
Tue 09:21:46 AM 37.1017 -78.9617 228° Southwest 424 488 38,000  Level Washington Center
Tue 09:22:44 AM 37.0236 -79.0675 227° Southwest 424 488 38,000  Level Washington Center
Tue 09:23:44 AM 36.9433 -79.1756 227° Southwest 424 488 38,000 -496 Level Washington Center
Tue 09:24:45 AM 36.8542 -79.2933 227° Southwest 430 495 37,000 -934 Descending Washington Center
Tue 09:25:46 AM 36.7736 -79.4036 228° Southwest 430 495 36,100 -1,059 Descending Washington Center
Tue 09:26:44 AM 36.7133 -79.5250 238° Southwest 422 486 34,900 -2,186 Descending Washington Center
Tue 09:27:44 AM 36.6975 -79.6850 263° West 429 494 31,800 -2,876 Descending Washington Center
Tue 09:28:45 AM 36.6322 -79.8161 238° Southwest 439 505 29,100 -2,521 Descending Washington Center
Tue 09:30:33 AM 36.4442 -79.9275 205° Southwest 430 495 24,700 -2,429 Descending Atlanta Center
Tue 09:31:33 AM 36.3317 -79.9925 205° Southwest 413 475 22,300 -1,350 Descending Atlanta Center
Tue 09:32:33 AM 36.2403 -80.0692 214° Southwest 403 464 22,000 -1,400 Descending Atlanta Center
Tue 09:33:33 AM 36.1425 -80.1486 213° Southwest 410 472 19,500  Descending Atlanta Center
Tue 09:34:33 AM 36.0492 -80.2275 214° Southwest 417 480 22,000 -1,907 Climbing Atlanta Center
Tue 09:35:20 AM 35.9822 -80.2922 218° Southwest 384 442 16,100 -4,500 Descending Atlanta Center
Tue 09:36:09 AM 35.9153 -80.3517 216° Southwest 370 426 14,800 -1,397 Descending Atlanta Center
Tue 09:36:33 AM 35.8908 -80.3708 212° Southwest 381 438 14,400 -1,063 Descending Atlanta Center
Tue 09:37:28 AM 35.8136 -80.4358 214° Southwest 329 379 13,400 -918 Descending Atlanta Center
Tue 09:38:11 AM 35.7667 -80.4736 213° Southwest 277 319 12,900 -923 Descending Atlanta Center
Tue 09:38:33 AM 35.7483 -80.4897 215° Southwest 310 357 12,400 -1,164 Descending Atlanta Center
Tue 09:39:18 AM 35.6994 -80.5356 217° Southwest 251 289 11,600 -900 Descending Atlanta Center
Tue 09:39:33 AM 35.6875 -80.5486 222° Southwest 273 314 11,500 -1,200 Descending Atlanta Center
Tue 09:40:18 AM 35.6683 -80.6133 250° West 255 293 10,400 -1,300 Descending Atlanta Center
Tue 09:40:33 AM 35.6583 -80.6292 232° Southwest 253 291 10,200 -1,279 Descending Atlanta Center
Tue 09:41:19 AM 35.6264 -80.6792 232° Southwest 240 276 9,100 -1,421 Descending Atlanta Center
Tue 09:42:27 AM 35.5739 -80.7450 226° Southwest 239 275 7,500 -1,594 Descending Atlanta Center
Tue 09:43:27 AM 35.5294 -80.8031 227° Southwest 230 265 5,700 -1,686 Descending Atlanta Center
Tue 09:44:28 AM 35.4892 -80.8581 228° Southwest 223 257 4,100 -836 Descending Atlanta Center
Tue 09:45:29 AM 35.4425 -80.9058 220° Southwest 214 246 4,000 -49 Descending Atlanta Center
Tue 09:46:30 AM 35.3933 -80.9383 208° Southwest 181 208 4,000  Level Atlanta Center

Login

Don't have an account? Register now (free) for customized features, flight alerts, and more!